Desdemona, Texas
Current Conditions -  °F | °C
As of 4:15 PM on Sunday 21 Dec 2014 (Local Time) from KSEP Reporting Station
Overcast Overcast  
Wind Chill: 54°   Ceiling: 1900
Heat Index: 54°   Visibility: 10mi
Dew Point: 45°   Wind: 14mph
Humidity: 73%   Direction: 190°S
Pressure: 29.85"   Gusts: 18mph
Location:  32.27°N, 98.55°W
Report Text: KSEP 212215Z AUTO 19012G16KT 10SM OVC019 12/07 A2985 RMK AO2 T01200073
Loading
Personal Weather Stations






























Interactive Weather Map New forecast layout! Learn more

10-Day Weather Forecast

Advertisements
Track Severe Weather on mobile